NCAR-RAP Real-Time Weather Data

Output produced by METARs form (24 January 2022  22:06 UTC)
found at http://weather.rap.ucar.edu/surface/
 
KMSO 242153Z 00000KT 1/4SM SN FZFG FEW006 OVC011 M03/M04 A3009 RMK AO2 SLP229 P0005 T10281044
KMSO 242146Z 00000KT 1/4SM SN FZFG FEW006 OVC011 M03/M04 A3009 RMK AO2 P0004 T10281044
KMSO 242053Z 23003KT 1/2SM SN FZFG FEW008 OVC013 M04/M05 A3008 RMK AO2 SLP227 P0005 60008 T10391050 58003
KMSO 242022Z 00000KT 1/2SM SN FZFG SCT008 OVC013 M04/M05 A3009 RMK AO2 P0003 T10391050
KMSO 242016Z 00000KT 1SM -SN BR BKN008 OVC011 M04/M05 A3009 RMK AO2 P0002 T10391050
KMSO 241957Z 00000KT 1/2SM SN FZFG OVC006 M04/M05 A3009 RMK AO2 P0001 T10391050
KMSO 241953Z 00000KT 1/4SM +SN FZFG OVC006 M04/M05 A3009 RMK AO2 SLP231 P0003 T10391050
KMSO 241937Z 14005KT 1/2SM SN FZFG BKN007 OVC018 M04/M06 A3009 RMK AO2 P0002 T10441056
KMSO 241928Z 13003KT 1/2SM SN FZFG SCT006 OVC022 M04/M06 A3009 RMK AO2 P0001 T10391056
KMSO 241910Z 33003KT 1SM -SN BR FEW006 BKN026 OVC038 M03/M05 A3009 RMK AO2 P0000 T10281050
KMSO 241905Z 34004KT 3/4SM -SN BR BKN026 OVC038 M03/M05 A3010 RMK AO2 P0000 T10281050
KMSO 241901Z 34004KT 1SM -SN BR BKN030 OVC038 M03/M06 A3010 RMK AO2 P0000 T10331056
KMSO 241853Z 34004KT 1 1/4SM -SN BR OVC037 M04/M06 A3010 RMK AO2 SNB35 SLP235 P0000 T10391061
KMSO 241845Z 00000KT 1 3/4SM -SN BR BKN041 OVC055 M04/M06 A3009 RMK AO2 SNB35 P0000 T10391061
KMSO 241753Z 25003KT 6SM BR OVC060 M07/M08 A3009 RMK AO2 SLP235 I6001 T10671083 11056 21106 55000
KMSO 241653Z 00000KT 6SM BR OVC090 M08/M09 A3009 RMK AO2 SLP235 T10781094
KMSO 241553Z 08004KT 7SM BKN110 M07/M08 A3009 RMK AO2 SLP232 T10671083
KMSO 241453Z 00000KT 10SM CLR M09/M12 A3009 RMK AO2 SLP236 I1000 I3001 T10941117 56009